Time;durP1;ratioP1;P1;durP2;ratioP2;P2;SDS_P1;SDS_P2;PMS_P1;PMS_P2;Temp;Humidity;BMP_temperature;BMP_pressure;BME280_temperature;BME280_humidity;BME280_pressure;Samples;Min_cycle;Max_cycle;Signal;HPM_P1;HPM_P2
2023/10/06 00:03:06;;;;;;;58.30;27.50;;;;;;;6.99;100.00;101342.73;108024;1272;72370;-82
2023/10/06 00:05:34;;;;;;;56.40;27.80;;;;;;;6.99;100.00;101343.11;107939;1272;61942;-81
2023/10/06 00:08:00;;;;;;;60.40;28.70;;;;;;;7.00;100.00;101338.15;107845;1272;59769;-81
2023/10/06 00:10:31;;;;;;;67.10;30.20;;;;;;;6.98;100.00;101338.73;108146;1272;58231;-82
2023/10/06 00:12:59;;;;;;;67.40;32.10;;;;;;;6.98;100.00;101336.32;108109;1272;74156;-81
2023/10/06 00:15:44;;;;;;;64.50;29.80;;;;;;;6.96;100.00;101338.02;108078;1272;73544;-82
2023/10/06 00:18:16;;;;;;;58.60;27.90;;;;;;;6.94;100.00;101332.34;108056;1272;61178;-82
2023/10/06 00:20:49;;;;;;;53.70;25.90;;;;;;;6.93;100.00;101332.89;108067;1272;60028;-81
2023/10/06 00:23:23;;;;;;;64.80;29.00;;;;;;;6.94;100.00;101332.55;108046;1272;73969;-81
2023/10/06 00:25:54;;;;;;;57.30;25.70;;;;;;;6.93;100.00;101331.93;108102;1272;74365;-81
2023/10/06 00:28:27;;;;;;;59.90;27.30;;;;;;;6.93;100.00;101324.69;107943;1273;71556;-81
2023/10/06 00:31:06;;;;;;;56.70;25.00;;;;;;;6.94;100.00;101321.25;108110;1271;61771;-80
2023/10/06 00:33:37;;;;;;;50.20;23.40;;;;;;;6.96;100.00;101319.75;108281;1272;59931;-81
2023/10/06 00:36:14;;;;;;;48.40;23.30;;;;;;;6.97;100.00;101315.46;108277;1272;73637;-81
2023/10/06 00:38:50;;;;;;;54.00;24.10;;;;;;;6.98;100.00;101315.59;107947;1272;74142;-81
2023/10/06 00:41:17;;;;;;;54.30;26.10;;;;;;;6.98;100.00;101313.27;108257;1271;73477;-80
2023/10/06 00:43:43;;;;;;;47.90;22.90;;;;;;;6.97;100.00;101309.77;107648;1272;60099;-80
2023/10/06 00:46:18;;;;;;;47.90;21.50;;;;;;;6.94;100.00;101304.43;108264;1271;58283;-81
2023/10/06 00:48:55;;;;;;;42.20;20.40;;;;;;;6.93;100.00;101306.09;108252;1271;73480;-80
2023/10/06 00:51:25;;;;;;;46.70;22.20;;;;;;;6.91;100.00;101306.04;108091;1271;72184;-80
2023/10/06 00:53:52;;;;;;;43.30;21.40;;;;;;;6.91;100.00;101306.92;108284;1271;72420;-80
2023/10/06 00:56:25;;;;;;;51.30;23.60;;;;;;;6.92;100.00;101308.09;108234;1271;61034;-80
2023/10/06 00:58:54;;;;;;;52.40;25.70;;;;;;;6.93;100.00;101305.98;108282;1271;59863;-80
2023/10/06 01:01:21;;;;;;;50.60;23.80;;;;;;;6.94;100.00;101308.97;108249;1272;74487;-80
2023/10/06 01:04:36;;;;;;;46.50;23.60;;;;;;;6.95;100.00;101310.20;108266;1271;73161;-80
2023/10/06 01:06:42;;;;;;;50.80;25.40;;;;;;;6.97;100.00;101312.16;108191;1271;72517;-81
2023/10/06 01:09:16;;;;;;;54.60;24.70;;;;;;;6.96;100.00;101310.75;107952;1272;60748;-81
2023/10/06 01:11:46;;;;;;;54.50;25.10;;;;;;;6.95;100.00;101307.52;108262;1271;61065;-81
2023/10/06 01:14:34;;;;;;;52.20;23.40;;;;;;;6.94;100.00;101304.57;108083;1272;73761;-81
2023/10/06 01:19:34;;;;;;;43.00;21.50;;;;;;;6.91;100.00;101296.52;108224;1272;72301;-81
2023/10/06 01:22:41;;;;;;;42.40;21.90;;;;;;;6.86;100.00;101297.40;108247;1271;58168;-81
2023/10/06 01:24:58;;;;;;;55.70;23.50;;;;;;;6.81;100.00;101301.86;108070;1272;59412;-81
2023/10/06 01:27:26;;;;;;;56.90;24.80;;;;;;;6.83;100.00;101298.75;108276;1271;74956;-81
2023/10/06 01:32:46;;;;;;;51.60;23.30;;;;;;;6.88;100.00;101296.31;108235;1271;71195;-81
2023/10/06 01:35:13;;;;;;;57.10;25.20;;;;;;;6.87;100.00;101291.21;108262;1271;61784;-81
2023/10/06 01:37:45;;;;;;;56.00;25.90;;;;;;;6.88;100.00;101293.09;108287;1271;60154;-81
2023/10/06 01:40:56;;;;;;;51.00;25.20;;;;;;;6.88;100.00;101292.25;108263;1272;74699;-81
2023/10/06 01:43:09;;;;;;;52.60;24.50;;;;;;;6.87;100.00;101284.30;108171;1272;72623;-82
2023/10/06 01:45:35;;;;;;;47.60;24.10;;;;;;;6.87;100.00;101287.14;108277;1272;73489;-82
2023/10/06 01:50:39;;;;;;;52.80;22.20;;;;;;;6.88;100.00;101280.95;108245;1271;60150;-82
2023/10/06 01:53:10;;;;;;;44.70;22.20;;;;;;;6.90;100.00;101277.42;108272;1271;74565;-82
2023/10/06 01:55:38;;;;;;;46.50;21.90;;;;;;;6.90;100.00;101275.20;108299;1271;72194;-82
2023/10/06 01:58:11;;;;;;;47.30;22.20;;;;;;;6.89;100.00;101274.55;108232;1271;73189;-81
2023/10/06 02:00:37;;;;;;;42.00;21.30;;;;;;;6.91;100.00;101275.23;108239;1271;61113;-81
2023/10/06 02:03:04;;;;;;;40.30;21.80;;;;;;;6.87;100.00;101272.63;107868;1271;58969;-81
2023/10/06 02:05:29;;;;;;;47.00;21.50;;;;;;;6.84;100.00;101270.70;108272;1271;59415;-82
2023/10/06 02:08:01;;;;;;;47.90;22.20;;;;;;;6.85;100.00;101269.77;108292;1272;58372;-81
2023/10/06 02:10:27;;;;;;;45.20;20.90;;;;;;;6.85;100.00;101267.70;108272;1271;72314;-81
2023/10/06 02:12:52;;;;;;;39.90;20.20;;;;;;;6.86;100.00;101266.26;108274;1272;58256;-80
2023/10/06 02:15:18;;;;;;;45.90;19.80;;;;;;;6.86;100.00;101258.51;108277;1271;58191;-79
2023/10/06 02:17:44;;;;;;;44.00;20.70;;;;;;;6.85;100.00;101264.40;108271;1272;58256;-81
2023/10/06 02:20:19;;;;;;;44.90;20.10;;;;;;;6.85;100.00;101257.02;108274;1272;58266;-80
2023/10/06 02:22:45;;;;;;;52.50;21.50;;;;;;;6.85;100.00;101256.54;107789;1271;72092;-80
2023/10/06 02:25:11;;;;;;;49.00;20.70;;;;;;;6.86;100.00;101258.19;108289;1272;58697;-81
2023/10/06 02:27:44;;;;;;;46.30;22.20;;;;;;;6.86;100.00;101256.77;108293;1272;58406;-81
2023/10/06 02:30:15;;;;;;;45.10;20.30;;;;;;;6.84;100.00;101254.48;108307;1272;74632;-81
2023/10/06 02:32:44;;;;;;;44.90;21.40;;;;;;;6.80;100.00;101249.07;108269;1271;73305;-81
2023/10/06 02:35:12;;;;;;;39.80;19.60;;;;;;;6.80;100.00;101244.70;107947;1271;72690;-81
2023/10/06 02:37:38;;;;;;;50.10;22.00;;;;;;;6.79;100.00;101239.64;108059;1271;60880;-81
2023/10/06 02:40:13;;;;;;;48.30;21.50;;;;;;;6.77;100.00;101239.33;108274;1271;61039;-80
2023/10/06 02:42:51;;;;;;;39.60;20.00;;;;;;;6.76;100.00;101242.21;107691;1273;73610;-81
2023/10/06 02:45:20;;;;;;;38.60;19.50;;;;;;;6.73;100.00;101239.56;108279;1271;74528;-80
2023/10/06 02:47:49;;;;;;;40.00;20.10;;;;;;;6.71;100.00;101237.82;108292;1272;72204;-82
2023/10/06 02:50:21;;;;;;;43.10;19.70;;;;;;;6.72;100.00;101236.68;108279;1271;61145;-81
2023/10/06 02:52:47;;;;;;;37.90;17.70;;;;;;;6.70;100.00;101226.45;108284;1271;60935;-81
2023/10/06 02:55:19;;;;;;;35.70;17.80;;;;;;;6.67;100.00;101223.67;108293;1270;58273;-82
2023/10/06 02:57:52;;;;;;;45.00;20.00;;;;;;;6.69;100.00;101225.27;107908;1273;72581;-81
2023/10/06 03:02:55;;;;;;;31.40;13.10;;;;;;;6.69;100.00;101226.83;108275;1271;60894;-81
2023/10/06 03:05:30;;;;;;;41.40;19.30;;;;;;;6.67;100.00;101222.15;108270;1272;61047;-81
2023/10/06 03:07:56;;;;;;;47.50;21.70;;;;;;;6.65;100.00;101218.48;108284;1271;73823;-80
2023/10/06 03:10:26;;;;;;;40.70;20.60;;;;;;;6.64;100.00;101221.95;108131;1272;58689;-81
2023/10/06 03:12:52;;;;;;;40.20;20.20;;;;;;;6.63;100.00;101223.16;107963;1271;376914;-81
2023/10/06 03:15:42;;;;;;;41.30;19.80;;;;;;;6.64;100.00;101221.62;108257;1271;58184;-81
2023/10/06 03:18:08;;;;;;;43.70;20.50;;;;;;;6.64;100.00;101224.79;107966;1272;61307;-81
2023/10/06 03:20:49;;;;;;;44.00;21.20;;;;;;;6.68;100.00;101223.75;108282;1271;58436;-81
2023/10/06 03:25:54;;;;;;;41.40;20.70;;;;;;;6.73;100.00;101214.48;108289;1272;71297;-81
2023/10/06 03:28:32;;;;;;;49.60;21.90;;;;;;;6.78;100.00;101212.27;108264;1271;60967;-81
2023/10/06 03:31:02;;;;;;;44.30;20.90;;;;;;;6.85;100.00;101209.96;108290;1272;59443;-81
2023/10/06 03:33:29;;;;;;;42.80;22.30;;;;;;;6.88;100.00;101209.05;108263;1272;74584;-81
2023/10/06 03:35:57;;;;;;;51.50;23.40;;;;;;;6.91;100.00;101203.64;108274;1271;74127;-81
2023/10/06 03:43:33;;;;;;;48.20;24.80;;;;;;;7.03;100.00;101203.16;108242;1272;59938;-81
2023/10/06 03:46:00;;;;;;;41.90;21.70;;;;;;;7.09;100.00;101203.64;108301;1271;74637;-81
2023/10/06 03:48:29;;;;;;;44.60;23.40;;;;;;;7.14;100.00;101201.55;108293;1271;74243;-81
2023/10/06 03:50:55;;;;;;;55.00;23.80;;;;;;;7.32;100.00;101200.05;108240;1271;73751;-81
2023/10/06 03:53:24;;;;;;;56.20;25.30;;;;;;;7.48;100.00;101197.64;108265;1272;58278;-81
2023/10/06 03:55:49;;;;;;;60.60;27.50;;;;;;;7.43;100.00;101195.88;108268;1271;61274;-81
2023/10/06 03:58:18;;;;;;;70.30;30.70;;;;;;;7.48;100.00;101195.86;107981;1273;58309;-81
2023/10/06 04:00:51;;;;;;;66.70;32.10;;;;;;;7.58;100.00;101194.48;107818;1273;74375;-82
2023/10/06 04:03:19;;;;;;;62.70;31.50;;;;;;;7.66;100.00;101190.53;107467;1273;72643;-82
2023/10/06 04:05:45;;;;;;;70.50;32.00;;;;;;;7.75;100.00;101193.82;107627;1276;62249;-81
2023/10/06 04:08:14;;;;;;;65.90;30.00;;;;;;;7.82;100.00;101189.88;107651;1276;58204;-82
2023/10/06 04:10:40;;;;;;;64.20;30.00;;;;;;;7.89;100.00;101189.05;107660;1276;74512;-82
2023/10/06 04:13:10;;;;;;;65.10;32.30;;;;;;;7.97;100.00;101181.38;107485;1277;72970;-82
2023/10/06 04:15:43;;;;;;;70.30;32.40;;;;;;;8.08;100.00;101179.58;107609;1276;73361;-82
2023/10/06 04:18:10;;;;;;;66.40;32.60;;;;;;;8.17;100.00;101181.75;107608;1276;60768;-82
2023/10/06 04:20:41;;;;;;;67.70;32.10;;;;;;;8.28;100.00;101178.40;107641;1277;59534;-82
2023/10/06 04:23:07;;;;;;;65.70;31.10;;;;;;;8.39;100.00;101175.60;107646;1277;74522;-81
2023/10/06 04:25:38;;;;;;;76.40;34.60;;;;;;;8.50;100.00;101174.50;107301;1277;73868;-82
2023/10/06 04:28:14;;;;;;;76.10;35.30;;;;;;;8.60;100.00;101172.05;107620;1277;73435;-81
2023/10/06 04:30:42;;;;;;;73.60;34.10;;;;;;;8.72;100.00;101173.38;107586;1277;61651;-82
2023/10/06 04:33:10;;;;;;;71.60;34.20;;;;;;;8.85;100.00;101173.66;107289;1276;60051;-81
2023/10/06 04:35:47;;;;;;;84.60;34.90;;;;;;;8.94;100.00;101172.98;107510;1274;73406;-81
2023/10/06 04:38:14;;;;;;;80.70;35.60;;;;;;;9.07;100.00;101175.12;108280;1272;73538;-82
2023/10/06 04:40:43;;;;;;;79.40;34.10;;;;;;;9.19;100.00;101170.56;108265;1271;72856;-82
2023/10/06 04:43:09;;;;;;;65.50;32.30;;;;;;;9.35;100.00;101171.11;108280;1272;61180;-83
2023/10/06 04:45:38;;;;;;;67.90;32.10;;;;;;;9.47;100.00;101163.20;107962;1272;58173;-82
2023/10/06 04:48:07;;;;;;;67.90;31.80;;;;;;;9.63;100.00;101161.85;108045;1272;74669;-81
2023/10/06 04:50:34;;;;;;;66.90;30.80;;;;;;;9.76;100.00;101160.11;108261;1272;74430;-82
2023/10/06 04:53:00;;;;;;;60.60;28.30;;;;;;;9.91;100.00;101155.91;108225;1271;58269;-82
2023/10/06 04:55:26;;;;;;;63.60;25.70;;;;;;;10.08;100.00;101155.85;108246;1272;69503;-82
2023/10/06 04:57:52;;;;;;;52.20;24.30;;;;;;;10.24;100.00;101156.77;108287;1271;58316;-82
2023/10/06 05:00:21;;;;;;;53.30;22.20;;;;;;;10.38;100.00;101157.13;108269;1271;58249;-81
2023/10/06 05:02:48;;;;;;;53.30;23.20;;;;;;;10.51;100.00;101158.76;108250;1272;74124;-82
2023/10/06 05:05:22;;;;;;;54.00;21.60;;;;;;;10.65;100.00;101162.52;107903;1272;72552;-82
2023/10/06 05:07:54;;;;;;;42.40;18.90;;;;;;;10.78;100.00;101163.58;108268;1271;61022;-82
2023/10/06 05:10:25;;;;;;;46.20;19.80;;;;;;;10.94;100.00;101162.18;108102;1271;61260;-82
2023/10/06 05:12:54;;;;;;;37.80;16.60;;;;;;;11.12;100.00;101161.30;108278;1270;74489;-82
2023/10/06 05:15:26;;;;;;;39.60;15.40;;;;;;;11.33;100.00;101159.16;107986;1271;72278;-81
2023/10/06 05:18:03;;;;;;;41.40;15.70;;;;;;;11.51;100.00;101157.27;108234;1272;73468;-82
2023/10/06 05:20:31;;;;;;;36.90;15.30;;;;;;;11.79;100.00;101159.85;107895;1272;60952;-83
2023/10/06 05:23:09;;;;;;;42.50;15.80;;;;;;;11.99;100.00;101157.59;108265;1271;60117;-82
2023/10/06 05:25:39;;;;;;;39.80;14.50;;;;;;;12.25;100.00;101152.70;108283;1272;74743;-82
2023/10/06 05:28:07;;;;;;;39.00;14.80;;;;;;;12.67;100.00;101147.02;108224;1272;72505;-81
2023/10/06 05:30:33;;;;;;;39.10;15.00;;;;;;;13.06;100.00;101149.86;108248;1271;73424;-82
2023/10/06 05:33:00;;;;;;;53.20;17.60;;;;;;;13.48;100.00;101140.92;108290;1271;58184;-83
2023/10/06 05:35:30;;;;;;;44.00;16.20;;;;;;;13.86;100.00;101139.98;108261;1271;58261;-83
2023/10/06 05:37:58;;;;;;;42.00;14.30;;;;;;;14.35;100.00;101140.58;108024;1272;73737;-82
2023/10/06 05:40:25;;;;;;;36.40;13.80;;;;;;;14.90;100.00;101138.48;108254;1272;73175;-82
2023/10/06 05:42:50;;;;;;;30.30;11.80;;;;;;;15.66;100.00;101134.33;108254;1271;72443;-83
2023/10/06 05:45:25;;;;;;;31.50;12.00;;;;;;;16.16;100.00;101124.77;108240;1273;58304;-83
2023/10/06 05:47:54;;;;;;;28.70;12.00;;;;;;;16.51;100.00;101117.23;108268;1271;61191;-83
2023/10/06 05:50:29;;;;;;;35.10;11.40;;;;;;;16.98;100.00;101115.85;107899;1274;73385;-83
2023/10/06 05:53:01;;;;;;;28.90;12.00;;;;;;;17.36;100.00;101111.09;107461;1276;73606;-83
2023/10/06 05:55:38;;;;;;;39.00;12.60;;;;;;;17.47;100.00;101111.87;107757;1274;72437;-85
2023/10/06 05:58:09;;;;;;;30.90;11.70;;;;;;;17.51;100.00;101113.33;107841;1274;62706;-84
2023/10/06 06:00:43;;;;;;;35.70;11.70;;;;;;;17.67;100.00;101107.60;107875;1274;61623;-83
2023/10/06 06:03:13;;;;;;;27.40;12.30;;;;;;;18.18;100.00;101109.34;107293;1278;73531;-85
2023/10/06 06:05:39;;;;;;;27.30;10.90;;;;;;;18.73;100.00;101110.05;107425;1278;73359;-85
2023/10/06 06:08:15;;;;;;;25.30;10.70;;;;;;;18.86;100.00;101111.13;107400;1278;72595;-85
2023/10/06 06:10:40;;;;;;;28.00;10.50;;;;;;;18.89;100.00;101106.69;107384;1278;60175;-86
2023/10/06 06:13:07;;;;;;;28.20;10.30;;;;;;;19.04;100.00;101107.45;107155;1278;58587;-84
2023/10/06 06:15:33;;;;;;;35.40;11.20;;;;;;;19.24;100.00;101111.02;107405;1278;58335;-86
2023/10/06 06:18:13;;;;;;;29.30;10.30;;;;;;;19.30;99.89;101110.02;107431;1278;58816;-86
2023/10/06 06:20:41;;;;;;;27.90;10.40;;;;;;;19.48;99.12;101111.77;107195;1277;72061;-85
2023/10/06 06:23:12;;;;;;;32.60;9.70;;;;;;;19.66;94.65;101118.71;107639;1276;59175;-85
2023/10/06 06:25:41;;;;;;;28.70;10.00;;;;;;;19.68;90.52;101112.81;107674;1278;59154;-85
2023/10/06 06:28:08;;;;;;;28.20;9.80;;;;;;;19.86;87.38;101110.36;107375;1278;74466;-85
2023/10/06 06:30:39;;;;;;;30.60;10.10;;;;;;;20.02;81.76;101105.84;107263;1278;73586;-85
2023/10/06 06:33:12;;;;;;;24.40;9.30;;;;;;;20.00;81.03;101108.09;107121;1278;72547;-85
2023/10/06 06:35:48;;;;;;;;;;;;;;;;;;;;;
2023/10/06 06:38:14;;;;;;;29.80;9.60;;;;;;;20.07;77.73;101108.71;106794;1277;59805;-87
2023/10/06 06:40:41;;;;;;;25.60;9.10;;;;;;;19.96;72.85;101107.67;107515;1279;58694;-85
2023/10/06 06:43:12;;;;;;;28.30;9.20;;;;;;;19.76;72.57;101106.34;107278;1278;58556;-85
2023/10/06 06:45:41;;;;;;;19.00;8.70;;;;;;;19.64;72.30;101107.96;107273;1278;72878;-86
2023/10/06 06:48:16;;;;;;;31.10;9.00;;;;;;;20.35;74.67;101098.89;107499;1279;59169;-85
2023/10/06 06:50:50;;;;;;;31.10;8.50;;;;;;;21.34;70.49;101094.48;107446;1278;60228;-85
2023/10/06 06:53:18;;;;;;;26.50;10.10;;;;;;;21.87;68.05;101096.49;107699;1275;74787;-86
2023/10/06 06:58:28;;;;;;;25.40;9.10;;;;;;;23.86;63.19;101081.63;107687;1273;72467;-92
2023/10/06 07:01:07;;;;;;;;;;;;;;;;;;;;;
2023/10/06 07:03:40;;;;;;;28.90;8.70;;;;;;;26.26;53.36;101066.25;108264;1272;60573;-86
2023/10/06 07:06:16;;;;;;;25.50;8.30;;;;;;;26.24;50.60;101065.34;108077;1272;73503;-86
2023/10/06 07:08:48;;;;;;;19.80;7.60;;;;;;;26.56;48.14;101062.16;108093;1271;73618;-85
2023/10/06 07:11:15;;;;;;;23.30;8.20;;;;;;;26.59;46.86;101064.38;108029;1272;73441;-87
2023/10/06 07:13:46;;;;;;;23.00;7.50;;;;;;;26.68;46.38;101063.10;107901;1272;59653;-87
2023/10/06 07:16:14;;;;;;;29.20;8.80;;;;;;;26.43;46.14;101060.95;107392;1277;60554;-87
2023/10/06 07:18:45;;;;;;;26.20;8.70;;;;;;;26.87;46.93;101061.16;107385;1278;74468;-88
2023/10/06 07:21:17;;;;;;;26.20;8.50;;;;;;;28.21;46.06;101062.21;106938;1280;74241;-87
2023/10/06 07:23:56;;;;;;;26.90;8.50;;;;;;;29.86;43.76;101057.52;107128;1281;73994;-87
2023/10/06 07:26:42;;;;;;;25.00;8.40;;;;;;;31.37;41.99;101049.60;107161;1280;60722;-90
2023/10/06 07:29:20;;;;;;;;;;;;;;;;;;;;;
2023/10/06 07:32:10;;;;;;;;;;;;;;;;;;;;;
2023/10/06 07:34:54;;;;;;;;;;;;;;;;;;;;;
2023/10/06 07:37:36;;;;;;;;;;;;;;;;;;;;;
2023/10/06 07:40:26;;;;;;;;;;;;;;;;;;;;;
2023/10/06 07:43:28;;;;;;;22.00;8.60;;;;;;;30.24;35.69;101058.44;106590;1284;59501;-86
2023/10/06 07:46:52;;;;;;;;;;;;;;;;;;;;;
2023/10/06 07:48:57;;;;;;;;;;;;;;;;;;;;;
2023/10/06 07:51:36;;;;;;;;;;;;;;;;;;;;;
2023/10/06 07:54:07;;;;;;;25.40;8.70;;;;;;;29.05;35.47;101056.89;106405;1286;59932;-85
2023/10/06 07:57:11;;;;;;;;;;;;;;;;;;;;;
2023/10/06 07:59:36;;;;;;;15.80;6.90;;;;;;;28.01;36.75;101058.23;106643;1287;72863;-86
2023/10/06 08:02:08;;;;;;;18.90;6.80;;;;;;;27.27;36.53;101057.04;106476;1284;58851;-85
2023/10/06 08:05:06;;;;;;;19.80;7.00;;;;;;;26.36;37.47;101055.87;106486;1290;71423;-85
2023/10/06 08:08:08;;;;;;;18.70;6.50;;;;;;;26.10;38.64;101059.38;106535;1284;61743;-86
2023/10/06 08:10:33;;;;;;;19.60;7.40;;;;;;;26.79;38.70;101057.80;106505;1285;59844;-87
2023/10/06 08:13:01;;;;;;;24.30;6.20;;;;;;;27.92;38.38;101046.80;106479;1286;58420;-88
2023/10/06 08:15:28;;;;;;;19.30;6.60;;;;;;;29.46;36.86;101031.32;106414;1287;73434;-88
2023/10/06 08:17:56;;;;;;;19.30;6.40;;;;;;;31.13;36.10;101021.77;106421;1287;58244;-86
2023/10/06 08:20:35;;;;;;;;;;;;;;;;;;;;;
2023/10/06 08:23:06;;;;;;;16.80;6.90;;;;;;;32.38;33.30;101030.94;106558;1286;58987;-88
2023/10/06 08:26:09;;;;;;;;;;;;;;;;;;;;;
2023/10/06 08:28:49;;;;;;;;;;;;;;;;;;;;;
2023/10/06 08:31:42;;;;;;;19.10;7.10;;;;;;;31.87;32.05;101036.36;105853;1293;74028;-86
2023/10/06 08:34:23;;;;;;;;;;;;;;;;;;;;;
2023/10/06 08:38:04;;;;;;;;;;;;;;;;;;;;;
2023/10/06 08:44:01;;;;;;;;;;;;;;;;;;;;;
2023/10/06 08:46:43;;;;;;;;;;;;;;;;;;;;;
2023/10/06 08:49:39;;;;;;;;;;;;;;;;;;;;;
2023/10/06 08:52:47;;;;;;;;;;;;;;;;;;;;;
2023/10/06 08:56:01;;;;;;;15.80;5.80;;;;;;;31.86;30.15;101020.34;104496;1308;72849;-86
2023/10/06 08:58:49;;;;;;;13.30;4.70;;;;;;;30.48;31.10;101020.17;104683;1308;72187;-85
2023/10/06 09:01:18;;;;;;;14.90;5.40;;;;;;;29.39;31.90;101019.91;104745;1308;72573;-84
2023/10/06 09:03:46;;;;;;;10.90;4.90;;;;;;;28.66;33.17;101023.89;104601;1308;60379;-86
2023/10/06 09:06:20;;;;;;;14.80;5.60;;;;;;;28.42;33.60;101025.48;104692;1305;58799;-84
2023/10/06 09:08:49;;;;;;;23.40;6.20;;;;;;;28.01;33.88;101022.54;104963;1305;73886;-84
2023/10/06 09:11:15;;;;;;;19.30;5.30;;;;;;;27.79;34.31;101024.64;105212;1302;74854;-85
2023/10/06 09:13:41;;;;;;;15.30;5.50;;;;;;;27.57;34.77;101032.35;105305;1302;58468;-85
2023/10/06 09:16:07;;;;;;;15.50;5.80;;;;;;;27.09;35.20;101029.59;105625;1288;58783;-86
2023/10/06 09:18:34;;;;;;;15.50;5.70;;;;;;;26.75;35.90;101029.52;106332;1292;58286;-86
2023/10/06 09:21:15;;;;;;;20.30;5.40;;;;;;;26.54;36.55;101031.53;106529;1283;58389;-86
2023/10/06 09:23:42;;;;;;;14.30;5.50;;;;;;;26.07;37.06;101035.08;106893;1283;73276;-84
2023/10/06 09:26:12;;;;;;;15.10;5.50;;;;;;;25.84;37.85;101034.15;106790;1283;72361;-82
2023/10/06 09:28:50;;;;;;;19.50;5.70;;;;;;;25.84;37.84;101036.83;107055;1283;60075;-83
2023/10/06 09:31:18;;;;;;;14.30;5.20;;;;;;;25.85;37.59;101033.70;106661;1284;58613;-85
2023/10/06 09:33:49;;;;;;;12.70;5.60;;;;;;;25.62;37.90;101026.48;106575;1284;74481;-84
2023/10/06 09:36:21;;;;;;;13.00;4.70;;;;;;;25.42;38.43;101023.31;107343;1276;74149;-89
2023/10/06 09:38:47;;;;;;;19.60;5.60;;;;;;;25.48;38.56;101025.21;107397;1277;73807;-90
2023/10/06 09:41:25;;;;;;;22.00;5.50;;;;;;;25.59;38.36;101025.92;107068;1280;61121;-89
2023/10/06 09:43:53;;;;;;;14.40;5.30;;;;;;;25.67;38.47;101026.79;107253;1278;61205;-87
2023/10/06 09:46:22;;;;;;;15.90;5.00;;;;;;;25.91;38.18;101023.27;107079;1282;73803;-87
2023/10/06 09:48:51;;;;;;;13.70;5.00;;;;;;;25.63;38.33;101018.61;106761;1284;72938;-89
2023/10/06 09:51:23;;;;;;;12.70;5.70;;;;;;;25.14;38.97;101023.81;106446;1284;73870;-85
2023/10/06 09:53:49;;;;;;;13.60;4.90;;;;;;;24.82;39.50;101028.20;106334;1286;61240;-87
2023/10/06 09:56:20;;;;;;;17.50;4.30;;;;;;;24.35;39.10;101026.07;106413;1288;58267;-86
2023/10/06 09:58:51;;;;;;;11.70;4.20;;;;;;;23.70;39.24;101030.36;106130;1290;74598;-86
2023/10/06 10:01:20;;;;;;;15.40;4.90;;;;;;;23.43;40.07;101033.89;106177;1291;73368;-86
2023/10/06 10:03:48;;;;;;;13.40;4.10;;;;;;;23.09;40.47;101023.36;105941;1293;71302;-86
2023/10/06 10:06:20;;;;;;;20.80;5.30;;;;;;;22.89;40.86;101017.42;105949;1292;60370;-89
2023/10/06 10:08:47;;;;;;;15.20;4.50;;;;;;;22.66;41.03;101018.36;105881;1292;60391;-84
2023/10/06 10:11:28;;;;;;;19.50;4.30;;;;;;;22.44;41.18;101020.03;105959;1292;58433;-92
2023/10/06 10:14:06;;;;;;;11.80;3.80;;;;;;;22.16;41.75;101017.52;105957;1293;72219;-85
2023/10/06 10:16:42;;;;;;;15.70;4.50;;;;;;;22.03;42.17;101013.50;105986;1293;72425;-87
2023/10/06 10:19:11;;;;;;;8.60;3.50;;;;;;;21.92;42.41;101010.67;106048;1289;58609;-88
2023/10/06 10:21:41;;;;;;;12.50;3.80;;;;;;;21.92;42.44;101012.55;106252;1289;60024;-88
2023/10/06 10:24:12;;;;;;;20.70;4.60;;;;;;;21.91;42.15;101006.80;106595;1289;74583;-84
2023/10/06 10:26:45;;;;;;;18.80;4.50;;;;;;;21.77;41.60;101004.92;106790;1280;73326;-87
2023/10/06 10:29:16;;;;;;;14.40;4.20;;;;;;;21.61;41.79;101001.89;107131;1280;73753;-90
2023/10/06 10:31:52;;;;;;;12.90;4.50;;;;;;;21.60;41.99;101009.29;107167;1279;60128;-87
2023/10/06 10:34:27;;;;;;;17.50;4.50;;;;;;;21.56;42.26;101003.63;107443;1275;60177;-87
2023/10/06 10:36:53;;;;;;;14.30;3.60;;;;;;;21.52;42.91;101000.70;107807;1275;72709;-88
2023/10/06 10:39:20;;;;;;;10.60;4.20;;;;;;;21.46;42.83;101001.66;107871;1274;58284;-85
2023/10/06 10:41:46;;;;;;;10.50;4.70;;;;;;;21.33;42.77;100999.89;107788;1275;58282;-88
2023/10/06 10:44:14;;;;;;;14.00;5.00;;;;;;;21.32;43.06;100995.48;107774;1272;58201;-87
2023/10/06 10:46:48;;;;;;;13.60;5.10;;;;;;;21.31;43.14;100990.35;108086;1272;60963;-88
2023/10/06 10:49:23;;;;;;;13.90;4.40;;;;;;;21.43;43.82;100989.41;108250;1272;74755;-88
2023/10/06 10:51:57;;;;;;;11.60;5.20;;;;;;;21.62;43.89;100983.52;108275;1271;74211;-87
2023/10/06 10:54:27;;;;;;;15.00;5.90;;;;;;;21.80;43.91;100991.36;108079;1272;73407;-88
2023/10/06 10:56:56;;;;;;;13.40;4.00;;;;;;;21.98;44.06;100982.54;108053;1272;60280;-92
2023/10/06 10:59:22;;;;;;;12.50;3.80;;;;;;;22.22;43.47;100977.99;108097;1272;58935;-89
2023/10/06 11:01:52;;;;;;;12.30;4.10;;;;;;;22.26;43.52;100981.86;108083;1272;58308;-88
2023/10/06 11:06:55;;;;;;;12.70;3.80;;;;;;;22.00;42.72;100990.39;108087;1273;71341;-88
2023/10/06 11:09:36;;;;;;;10.10;4.20;;;;;;;21.84;43.05;100983.39;108098;1271;60179;-86
2023/10/06 11:12:17;;;;;;;12.30;4.20;;;;;;;21.91;43.44;100990.12;107958;1272;61449;-90
2023/10/06 11:14:43;;;;;;;15.50;3.90;;;;;;;21.81;43.22;100992.63;108293;1273;73448;-85
2023/10/06 11:17:11;;;;;;;15.30;4.40;;;;;;;21.57;43.85;100986.49;108147;1272;58255;-87
2023/10/06 11:19:40;;;;;;;15.00;4.30;;;;;;;21.44;44.36;100993.54;108119;1273;72356;-84
2023/10/06 11:22:22;;;;;;;14.90;4.00;;;;;;;21.28;44.80;100991.86;108115;1273;60999;-84
2023/10/06 11:24:50;;;;;;;18.80;4.20;;;;;;;21.05;45.01;100989.14;108232;1272;60709;-84
2023/10/06 11:27:28;;;;;;;16.20;3.20;;;;;;;20.84;45.08;100994.91;108293;1271;74601;-82
2023/10/06 11:29:57;;;;;;;16.40;3.40;;;;;;;20.61;44.62;100998.20;108262;1273;74637;-84
2023/10/06 11:32:23;;;;;;;10.90;3.30;;;;;;;20.38;44.56;101001.29;108243;1272;72276;-83
2023/10/06 11:34:50;;;;;;;12.80;3.90;;;;;;;20.17;44.72;101003.92;108248;1272;58194;-83
2023/10/06 11:37:18;;;;;;;18.20;3.00;;;;;;;20.02;45.02;101003.84;108095;1272;61077;-84
2023/10/06 11:39:49;;;;;;;11.70;3.50;;;;;;;19.88;45.36;101011.73;108105;1271;74568;-85
2023/10/06 11:42:40;;;;;;;;;;;;;;;;;;;;;
2023/10/06 11:45:24;;;;;;;18.50;3.50;;;;;;;19.61;45.76;101008.01;107853;1275;74113;-85
2023/10/06 11:47:53;;;;;;;13.20;3.10;;;;;;;19.77;46.07;100997.08;107539;1274;60288;-88
2023/10/06 11:50:32;;;;;;;10.00;3.40;;;;;;;20.04;45.28;101001.76;107366;1277;60384;-93
2023/10/06 11:52:59;;;;;;;18.80;3.20;;;;;;;20.32;44.71;100995.20;107362;1278;73544;-90
2023/10/06 11:55:33;;;;;;;14.90;3.10;;;;;;;20.60;44.60;101000.09;107268;1279;74619;-87
2023/10/06 11:58:18;;;;;;;10.30;3.00;;;;;;;20.80;44.02;101001.15;107206;1280;72605;-88
2023/10/06 12:00:45;;;;;;;15.40;3.20;;;;;;;20.89;43.82;101001.47;107104;1280;60001;-90
2023/10/06 12:03:12;;;;;;;17.60;3.00;;;;;;;20.83;43.51;101000.88;107098;1280;60133;-90
2023/10/06 12:05:41;;;;;;;11.00;2.60;;;;;;;20.61;43.63;101008.05;107015;1279;58236;-90
2023/10/06 12:08:12;;;;;;;14.40;3.30;;;;;;;20.38;43.87;101005.40;106976;1280;73296;-92
2023/10/06 12:10:51;;;;;;;16.10;3.20;;;;;;;20.25;43.99;101008.21;107380;1276;73446;-88
2023/10/06 12:13:20;;;;;;;17.50;2.30;;;;;;;20.18;44.18;101006.23;107397;1276;61043;-89
2023/10/06 12:15:54;;;;;;;9.60;2.30;;;;;;;20.02;43.51;101013.31;107171;1280;62620;-86
2023/10/06 12:21:11;;;;;;;6.50;2.10;;;;;;;19.73;43.32;101015.50;106423;1286;73166;-87
2023/10/06 12:23:44;;;;;;;7.80;1.90;;;;;;;19.69;43.68;101013.30;106299;1289;72641;-86
2023/10/06 12:26:12;;;;;;;6.10;2.00;;;;;;;19.77;43.79;101008.13;106123;1290;60247;-88
2023/10/06 12:28:52;;;;;;;12.40;2.80;;;;;;;19.91;43.72;101005.94;106245;1287;60070;-89